Aberdeen Proving Ground, Maryland
Current Conditions -  °F | °C
As of 5:55 PM on Thursday 27 Nov 2014 (Local Time) from KMTN Reporting Station
Broken Clouds Broken Clouds  
Wind Chill: 37°   Ceiling: 8000
Heat Index: 37°   Visibility: 10mi
Dew Point: 30°   Wind: 0mph
Humidity: 75%   Direction: NA
Pressure: 30.11"   Gusts: NA
Location:  39.48°N, 76.13°W
Report Text: KMTN 272255Z 00000KT 10SM BKN080 03/M01 A3011
Loading
Personal Weather Stations






























Interactive Weather Map New forecast layout! Learn more

10-Day Weather Forecast

Advertisements
Track Severe Weather on mobile